createdAt,value
2023-05-06T00:00:33.626Z,99.9
2023-05-06T00:02:39.454Z,99.9
2023-05-06T00:06:53.898Z,99.9
2023-05-06T00:08:59.673Z,99.9
2023-05-06T00:11:05.425Z,99.9
2023-05-06T00:30:00.103Z,99.9
2023-05-06T00:32:05.910Z,99.9
2023-05-06T00:34:11.550Z,99.9
2023-05-06T00:36:20.260Z,99.9
2023-05-06T00:38:26.062Z,99.9
2023-05-06T00:47:53.388Z,99.9
2023-05-06T00:54:13.556Z,99.9
2023-05-06T00:56:20.762Z,99.9
2023-05-06T00:58:25.131Z,99.9
2023-05-06T01:06:51.154Z,99.9
2023-05-06T01:08:56.905Z,99.9
2023-05-06T01:11:02.756Z,99.9
2023-05-06T01:13:08.646Z,99.9
2023-05-06T01:17:20.199Z,99.9
2023-05-06T01:19:28.988Z,99.9
2023-05-06T01:21:34.897Z,99.9
2023-05-06T01:25:46.307Z,99.9
2023-05-06T01:27:52.065Z,99.9
2023-05-06T01:29:57.777Z,99.9
2023-05-06T01:32:03.621Z,99.9
2023-05-06T01:34:12.369Z,99.9
2023-05-06T01:38:23.865Z,99.9
2023-05-06T01:39:28.207Z,99.9
2023-05-06T01:41:33.944Z,99.9
2023-05-06T01:43:39.659Z,99.9
2023-05-06T01:45:45.420Z,99.9
2023-05-06T01:49:59.867Z,99.9
2023-05-06T01:52:05.620Z,99.9
2023-05-06T02:04:43.070Z,99.9
2023-05-06T02:08:54.534Z,99.9
2023-05-06T02:13:06.059Z,99.9
2023-05-06T02:19:26.219Z,99.9
2023-05-06T02:21:31.979Z,99.9
2023-05-06T02:23:37.704Z,99.9
2023-05-06T02:25:43.467Z,99.9
2023-05-06T02:32:03.783Z,99.9
2023-05-06T02:34:09.635Z,99.9
2023-05-06T02:36:15.433Z,99.9
2023-05-06T02:37:19.783Z,99.9
2023-05-06T02:43:37.000Z,99.9
2023-05-06T02:47:51.532Z,99.9
2023-05-06T02:49:57.188Z,99.9
2023-05-06T02:52:03.013Z,99.9
2023-05-06T02:56:14.530Z,99.9
2023-05-06T02:58:20.263Z,99.9
2023-05-06T03:04:40.872Z,99.9
2023-05-06T03:06:46.518Z,99.9
2023-05-06T03:10:58.004Z,99.9
2023-05-06T03:13:03.801Z,99.9
2023-05-06T03:15:12.783Z,99.9
2023-05-06T03:17:18.216Z,99.9
2023-05-06T03:19:23.976Z,99.9
2023-05-06T03:21:29.765Z,99.9
2023-05-06T03:23:35.473Z,99.9
2023-05-06T03:25:41.223Z,99.9
2023-05-06T03:27:46.979Z,99.9
2023-05-06T03:34:07.190Z,99.9
2023-05-06T03:36:30.848Z,99.9
2023-05-06T03:38:36.607Z,99.9
2023-05-06T03:40:42.359Z,99.9
2023-05-06T03:47:02.566Z,99.9
2023-05-06T03:49:08.319Z,99.9
2023-05-06T03:51:14.088Z,99.9
2023-05-06T03:53:19.804Z,99.9
2023-05-06T03:55:25.580Z,99.9
2023-05-06T03:59:40.086Z,99.9
2023-05-06T04:01:45.921Z,99.9
2023-05-06T04:05:57.359Z,99.9
2023-05-06T04:08:03.137Z,99.9
2023-05-06T04:10:08.871Z,99.9
2023-05-06T04:22:46.790Z,99.9
2023-05-06T04:24:52.654Z,99.9
2023-05-06T04:27:01.451Z,99.9
2023-05-06T04:29:07.173Z,99.9
2023-05-06T04:32:17.465Z,99.9
2023-05-06T04:34:23.309Z,99.9
2023-05-06T04:36:29.145Z,99.9
2023-05-06T04:38:34.880Z,99.9
2023-05-06T04:40:43.679Z,99.9
2023-05-06T04:47:01.165Z,99.9
2023-05-06T04:49:06.892Z,99.9
2023-05-06T04:53:18.575Z,99.9
2023-05-06T04:57:33.318Z,99.9
2023-05-06T04:59:39.149Z,99.9
2023-05-06T05:01:44.985Z,99.9
2023-05-06T05:03:50.856Z,99.9
2023-05-06T05:05:56.652Z,99.9
2023-05-06T05:08:02.509Z,99.9
2023-05-06T05:10:11.403Z,99.9
2023-05-06T05:12:17.176Z,99.9
2023-05-06T05:14:23.004Z,99.9
2023-05-06T05:18:34.567Z,99.9
2023-05-06T05:20:40.309Z,99.9
2023-05-06T05:22:46.162Z,99.9
2023-05-06T05:27:02.380Z,99.9
2023-05-06T05:29:08.106Z,99.9
2023-05-06T05:30:12.501Z,99.9
2023-05-06T05:32:18.292Z,99.9
2023-05-06T05:38:38.731Z,99.9
2023-05-06T05:42:50.315Z,99.9
2023-05-06T05:44:56.170Z,99.9
2023-05-06T05:51:13.612Z,99.9
2023-05-06T05:53:22.326Z,99.9
2023-05-06T05:55:28.059Z,99.9
2023-05-06T05:57:33.840Z,99.9
2023-05-06T05:59:39.573Z,99.9
2023-05-06T06:01:45.312Z,99.9
2023-05-06T06:03:51.207Z,99.9
2023-05-06T06:05:56.859Z,99.9
2023-05-06T06:08:05.582Z,99.9
2023-05-06T06:10:11.353Z,99.9
2023-05-06T06:12:17.115Z,99.9
2023-05-06T06:14:22.845Z,99.9
2023-05-06T06:16:28.670Z,99.9
2023-05-06T06:18:34.388Z,99.9
2023-05-06T06:20:40.139Z,99.9
2023-05-06T06:22:48.912Z,99.9
2023-05-06T06:24:54.674Z,99.9
2023-05-06T06:27:00.452Z,99.9
2023-05-06T06:28:04.789Z,99.9
2023-05-06T06:30:10.559Z,99.9
2023-05-06T06:32:16.397Z,99.9
2023-05-06T06:34:22.122Z,99.7
2023-05-06T06:38:36.665Z,92.3
2023-05-06T06:40:42.461Z,85.8
2023-05-06T06:44:53.973Z,84.9
2023-05-06T06:46:59.753Z,82
2023-05-06T06:49:05.497Z,81.3
2023-05-06T06:51:14.247Z,84.2
2023-05-06T06:55:25.752Z,79.7
2023-05-06T06:57:31.490Z,81.1
2023-05-06T06:59:37.248Z,85.8
2023-05-06T07:01:43.063Z,89.8
2023-05-06T07:03:48.787Z,91.7
2023-05-06T07:08:03.201Z,91.6
2023-05-06T07:10:08.915Z,91.6
2023-05-06T07:12:14.686Z,91.5
2023-05-06T07:18:31.890Z,90.9
2023-05-06T07:20:40.601Z,90.6
2023-05-06T07:27:15.587Z,95.8
2023-05-06T07:29:21.338Z,97
2023-05-06T07:31:27.110Z,97.5
2023-05-06T07:33:35.837Z,98
2023-05-06T07:35:41.577Z,97.9
2023-05-06T07:37:47.344Z,97.9
2023-05-06T07:39:53.105Z,97.7
2023-05-06T07:41:58.882Z,97.6
2023-05-06T07:46:10.446Z,97.3
2023-05-06T07:52:30.677Z,97.3
2023-05-06T07:54:36.435Z,97.4
2023-05-06T07:56:42.203Z,97.6
2023-05-06T07:58:47.938Z,97.5
2023-05-06T08:00:53.715Z,97.5
2023-05-06T08:03:02.552Z,97.4
2023-05-06T08:05:08.351Z,97.4
2023-05-06T08:09:23.103Z,97.6
2023-05-06T08:11:25.524Z,97.8
2023-05-06T08:15:37.048Z,98.2
2023-05-06T08:17:45.845Z,98.6
2023-05-06T08:19:51.561Z,98.7
2023-05-06T08:21:57.346Z,98.7
2023-05-06T08:23:01.708Z,98.6
2023-05-06T08:25:07.680Z,98.4
2023-05-06T08:27:13.219Z,98.3
2023-05-06T08:29:18.972Z,98
2023-05-06T08:31:27.740Z,97.6
2023-05-06T08:33:33.503Z,97.6
2023-05-06T08:46:11.004Z,97.5
2023-05-06T08:52:28.262Z,98.3
2023-05-06T08:58:45.616Z,98.6
2023-05-06T09:00:54.329Z,97.9
2023-05-06T09:03:00.181Z,97.7
2023-05-06T09:07:11.534Z,97.2
2023-05-06T09:09:17.270Z,97.2
2023-05-06T09:13:28.777Z,97.2
2023-05-06T09:17:43.296Z,97.1
2023-05-06T09:19:49.002Z,97
2023-05-06T09:20:53.341Z,96.7
2023-05-06T09:22:59.084Z,96.4
2023-05-06T09:25:04.838Z,96.1
2023-05-06T09:27:11.192Z,95.8
2023-05-06T09:29:19.276Z,95.5
2023-05-06T09:31:25.073Z,95.7
2023-05-06T09:33:30.716Z,95.9
2023-05-06T09:46:08.034Z,93.1
2023-05-06T09:56:36.517Z,90.4
2023-05-06T09:58:45.185Z,90.6
2023-05-06T10:00:50.905Z,90.7
2023-05-06T10:05:02.488Z,89.9
2023-05-06T10:07:08.021Z,89
2023-05-06T10:13:28.098Z,88.8
2023-05-06T10:15:33.808Z,89
2023-05-06T10:17:39.526Z,89
2023-05-06T10:18:43.842Z,89
2023-05-06T10:20:49.551Z,88.8
2023-05-06T10:22:55.247Z,87.4
2023-05-06T10:27:09.652Z,80.6
2023-05-06T10:29:15.325Z,80.1
2023-05-06T10:31:21.054Z,80.1
2023-05-06T10:33:26.732Z,80
2023-05-06T10:35:32.432Z,80.3
2023-05-06T10:37:38.115Z,80.4
2023-05-06T10:39:43.832Z,80.4
2023-05-06T10:41:52.495Z,80.2
2023-05-06T10:43:58.196Z,80.1
2023-05-06T10:46:03.931Z,80
2023-05-06T10:48:09.618Z,81.2
2023-05-06T10:52:20.998Z,83.8
2023-05-06T10:54:26.715Z,83.5
2023-05-06T10:58:41.163Z,82.8
2023-05-06T11:02:52.686Z,83.4
2023-05-06T11:04:58.288Z,83.6
2023-05-06T11:09:09.743Z,83.8
2023-05-06T11:11:18.446Z,84.1
2023-05-06T11:13:24.230Z,83.9
2023-05-06T11:18:01.063Z,80.1
2023-05-06T11:22:12.506Z,79.8
2023-05-06T11:24:21.213Z,78.6
2023-05-06T11:26:28.562Z,78.4
2023-05-06T11:28:34.283Z,77.8
2023-05-06T11:30:40.041Z,77.7
2023-05-06T11:34:51.458Z,78.1
2023-05-06T11:39:05.926Z,78.4
2023-05-06T11:41:11.645Z,78.5
2023-05-06T11:43:17.350Z,78.7
2023-05-06T11:47:28.873Z,79.1
2023-05-06T11:49:36.822Z,79.2
2023-05-06T11:51:40.297Z,78.6
2023-05-06T11:53:49.036Z,76.7
2023-05-06T11:58:00.518Z,75.6
2023-05-06T12:06:24.608Z,72.2
2023-05-06T12:12:43.698Z,71.6
2023-05-06T12:22:13.975Z,71.9
2023-05-06T12:24:19.731Z,71.8
2023-05-06T12:26:25.452Z,71.4
2023-05-06T12:41:08.619Z,69.1
2023-05-06T12:43:14.317Z,69
2023-05-06T12:45:20.081Z,68.8
2023-05-06T12:47:25.957Z,68.7
2023-05-06T12:49:31.523Z,68.2
2023-05-06T12:51:40.285Z,67
2023-05-06T12:53:45.976Z,66.4
2023-05-06T12:55:51.744Z,66
2023-05-06T12:57:58.045Z,65.6
2023-05-06T13:00:03.203Z,65.2
2023-05-06T13:02:08.963Z,65.3
2023-05-06T13:04:14.650Z,65.5
2023-05-06T13:06:23.402Z,65.7
2023-05-06T13:08:29.105Z,66.2
2023-05-06T13:10:34.856Z,66.7
2023-05-06T13:20:05.428Z,68.7
2023-05-06T13:22:10.911Z,68.8
2023-05-06T13:24:16.688Z,68.7
2023-05-06T13:26:22.413Z,68.4
2023-05-06T13:28:28.185Z,68.2
2023-05-06T13:30:33.920Z,67.9
2023-05-06T13:32:39.732Z,67
2023-05-06T13:34:48.401Z,64.9
2023-05-06T13:36:54.154Z,64.4
2023-05-06T13:38:59.936Z,64.1
2023-05-06T13:41:05.674Z,64
2023-05-06T13:43:11.427Z,64.2
2023-05-06T13:45:17.131Z,64.4
2023-05-06T13:47:22.905Z,64.6
2023-05-06T13:49:31.641Z,65.5
2023-05-06T13:51:37.389Z,65.7
2023-05-06T14:00:00.355Z,64.8
2023-05-06T14:02:09.015Z,64.2
2023-05-06T14:09:30.666Z,63.5
2023-05-06T14:11:36.429Z,63.6
2023-05-06T14:13:42.170Z,63.4
2023-05-06T14:17:56.698Z,63.7
2023-05-06T14:28:25.388Z,64.9
2023-05-06T14:34:45.618Z,65.6
2023-05-06T14:36:51.367Z,65.6
2023-05-06T14:38:57.119Z,65.7
2023-05-06T14:43:08.636Z,65.5
2023-05-06T14:47:23.171Z,64.5
2023-05-06T14:49:28.888Z,64.2
2023-05-06T14:51:34.647Z,63.9
2023-05-06T14:53:40.393Z,63.5
2023-05-06T15:02:06.397Z,61.2
2023-05-06T15:08:49.034Z,61.7
2023-05-06T15:15:09.395Z,62.8
2023-05-06T15:17:15.032Z,63
2023-05-06T15:19:20.768Z,63.4
2023-05-06T15:21:26.539Z,63.5
2023-05-06T15:23:32.285Z,63.6
2023-05-06T15:25:38.377Z,64
2023-05-06T15:27:43.808Z,64.1
2023-05-06T15:29:52.548Z,64.6
2023-05-06T15:31:58.346Z,64.8
2023-05-06T15:34:04.058Z,65.1
2023-05-06T15:36:09.828Z,65.1
2023-05-06T15:42:27.085Z,65.2
2023-05-06T15:46:41.671Z,64.5
2023-05-06T15:48:47.339Z,64.6
2023-05-06T15:50:53.087Z,65
2023-05-06T15:52:58.839Z,65.6
2023-05-06T15:55:04.627Z,66.2
2023-05-06T15:57:10.394Z,66.6
2023-05-06T16:01:44.936Z,67.6
2023-05-06T16:04:35.146Z,67.7
2023-05-06T16:06:40.783Z,67.6
2023-05-06T16:19:18.366Z,69.2
2023-05-06T16:21:24.111Z,69.6
2023-05-06T16:23:29.899Z,69.7
2023-05-06T16:27:44.417Z,70.4
2023-05-06T16:29:50.180Z,70.7
2023-05-06T16:31:55.992Z,70.8
2023-05-06T16:34:01.747Z,71.2
2023-05-06T16:36:07.796Z,72.2
2023-05-06T16:38:13.276Z,73.3
2023-05-06T16:40:19.086Z,77.2
2023-05-06T16:42:27.817Z,81.1
2023-05-06T16:44:33.612Z,82.5
2023-05-06T16:48:45.242Z,86
2023-05-06T16:50:50.924Z,86.2
2023-05-06T16:52:56.699Z,86.5
2023-05-06T16:55:02.498Z,86.6
2023-05-06T16:57:11.257Z,86
2023-05-06T16:59:17.455Z,84.1
2023-05-06T17:04:32.988Z,83.3
2023-05-06T17:06:38.820Z,83.9
2023-05-06T17:08:44.608Z,85.3
2023-05-06T17:10:53.363Z,88.6
2023-05-06T17:15:05.110Z,89.4
2023-05-06T17:19:16.525Z,90.1
2023-05-06T17:23:28.140Z,90.5
2023-05-06T17:25:36.906Z,90.8
2023-05-06T17:27:42.685Z,90.9
2023-05-06T17:29:50.109Z,91.3
2023-05-06T17:31:55.835Z,91.6
2023-05-06T17:34:01.650Z,92.3
2023-05-06T17:36:07.438Z,93
2023-05-06T17:38:13.231Z,93.5
2023-05-06T17:40:22.033Z,94.5
2023-05-06T17:42:27.784Z,94.8
2023-05-06T17:44:33.581Z,95.3
2023-05-06T17:46:39.424Z,95.6
2023-05-06T17:48:45.181Z,95.9
2023-05-06T17:52:56.766Z,96.4
2023-05-06T17:55:11.807Z,97
2023-05-06T17:59:17.123Z,97.4
2023-05-06T18:04:33.047Z,97.7
2023-05-06T18:06:38.876Z,97.7
2023-05-06T18:08:47.604Z,97.8
2023-05-06T18:10:53.410Z,97.9
2023-05-06T18:12:59.242Z,98
2023-05-06T18:15:05.040Z,98
2023-05-06T18:17:10.823Z,98
2023-05-06T18:19:16.637Z,97.9
2023-05-06T18:21:22.424Z,98
2023-05-06T18:23:31.704Z,98
2023-05-06T18:31:54.967Z,98.4
2023-05-06T18:34:00.745Z,98.7
2023-05-06T18:38:15.303Z,99.5
2023-05-06T18:40:21.132Z,99.7
2023-05-06T18:42:26.919Z,99.9
2023-05-06T18:44:32.714Z,99.9
2023-05-06T18:48:44.292Z,99.9
2023-05-06T18:50:50.095Z,99.9
2023-05-06T18:59:41.720Z,99.9
2023-05-06T19:01:47.531Z,99.9
2023-05-06T19:03:53.381Z,99.9
2023-05-06T19:08:07.866Z,99.9
2023-05-06T19:10:13.646Z,99.9
2023-05-06T19:12:19.431Z,99.9
2023-05-06T19:14:25.643Z,99.9
2023-05-06T19:20:45.546Z,99.9
2023-05-06T19:27:02.977Z,99.9
2023-05-06T19:29:08.751Z,99.9
2023-05-06T19:31:14.587Z,99.9
2023-05-06T19:33:20.321Z,99.9
2023-05-06T19:35:29.111Z,99.9
2023-05-06T19:37:34.891Z,99.9
2023-05-06T19:39:40.680Z,99.9
2023-05-06T19:41:46.458Z,99.9
2023-05-06T19:45:58.127Z,99.9
2023-05-06T19:52:18.430Z,99.9
2023-05-06T19:54:24.217Z,99.9
2023-05-06T19:55:28.601Z,99.9
2023-05-06T19:57:34.380Z,99.9
2023-05-06T19:59:40.187Z,99.9
2023-05-06T20:03:54.796Z,99.9
2023-05-06T20:06:00.535Z,99.9
2023-05-06T20:08:06.349Z,99.9
2023-05-06T20:12:17.900Z,99.9
2023-05-06T20:14:23.726Z,99.9
2023-05-06T20:16:29.534Z,99.9
2023-05-06T20:18:38.267Z,99.9
2023-05-06T20:22:49.809Z,99.9
2023-05-06T20:24:55.598Z,99.9
2023-05-06T20:27:01.418Z,99.9
2023-05-06T20:31:13.000Z,99.9
2023-05-06T20:33:21.745Z,99.9
2023-05-06T20:35:27.513Z,99.9
2023-05-06T20:37:33.300Z,99.9
2023-05-06T20:39:39.126Z,99.9
2023-05-06T20:41:44.900Z,99.9
2023-05-06T20:45:56.567Z,99.9
2023-05-06T20:50:10.999Z,99.9
2023-05-06T20:52:16.838Z,99.9
2023-05-06T20:53:21.170Z,99.9
2023-05-06T20:55:27.019Z,99.9
2023-05-06T20:57:32.776Z,99.9
2023-05-06T20:59:38.561Z,99.9
2023-05-06T21:03:53.284Z,99.9
2023-05-06T21:14:22.088Z,99.9
2023-05-06T21:16:30.849Z,99.9
2023-05-06T21:18:36.754Z,99.9
2023-05-06T21:20:42.433Z,99.9
2023-05-06T21:24:53.990Z,99.9
2023-05-06T21:26:59.775Z,99.9
2023-05-06T21:31:14.370Z,99.9
2023-05-06T21:33:20.165Z,99.9
2023-05-06T21:35:25.924Z,99.9
2023-05-06T21:37:31.746Z,99.9
2023-05-06T21:39:37.509Z,99.9
2023-05-06T21:41:43.285Z,99.9
2023-05-06T21:43:49.087Z,99.9
2023-05-06T21:45:57.855Z,99.9
2023-05-06T21:48:03.690Z,99.9
2023-05-06T21:50:09.435Z,99.9
2023-05-06T21:51:13.795Z,99.9
2023-05-06T21:53:19.610Z,99.9
2023-05-06T21:55:25.402Z,99.9
2023-05-06T21:57:31.174Z,99.9
2023-05-06T21:59:39.945Z,99.9
2023-05-06T22:01:45.777Z,99.9
2023-05-06T22:03:51.661Z,99.9
2023-05-06T22:05:57.342Z,99.9
2023-05-06T22:08:03.111Z,99.9
2023-05-06T22:10:08.907Z,99.9
2023-05-06T22:14:26.970Z,99.9
2023-05-06T22:16:29.307Z,99.9
2023-05-06T22:18:34.994Z,99.9
2023-05-06T22:20:40.769Z,99.9
2023-05-06T22:22:46.587Z,99.9
2023-05-06T22:24:52.367Z,99.9
2023-05-06T22:26:58.121Z,99.9
2023-05-06T22:29:06.900Z,99.9
2023-05-06T22:31:12.698Z,99.9
2023-05-06T22:45:56.176Z,99.9
2023-05-06T22:48:01.997Z,99.9
2023-05-06T22:50:33.223Z,99.9
2023-05-06T22:52:39.010Z,99.9
2023-05-06T22:54:44.807Z,99.9
2023-05-06T22:56:53.600Z,99.9
2023-05-06T22:58:59.331Z,99.9
2023-05-06T23:01:05.145Z,99.9
2023-05-06T23:05:16.686Z,99.9
2023-05-06T23:07:22.484Z,99.9
2023-05-06T23:09:28.259Z,99.9
2023-05-06T23:11:37.008Z,99.9
2023-05-06T23:13:42.787Z,99.9
2023-05-06T23:17:54.427Z,99.9
2023-05-06T23:20:00.234Z,99.9
2023-05-06T23:22:05.977Z,99.9
2023-05-06T23:24:11.751Z,99.9
2023-05-06T23:26:20.485Z,99.9
2023-05-06T23:28:26.282Z,99.9
2023-05-06T23:30:32.104Z,99.9
2023-05-06T23:32:39.525Z,99.9
2023-05-06T23:34:45.214Z,99.9
2023-05-06T23:38:56.790Z,99.9
2023-05-06T23:41:05.522Z,99.9
2023-05-06T23:43:11.369Z,99.9
2023-05-06T23:46:21.565Z,99.9
2023-05-06T23:48:27.289Z,99.9
2023-05-06T23:50:33.106Z,99.9
2023-05-06T23:52:38.878Z,99.9
2023-05-06T23:56:53.395Z,99.9
